createdAt,value
2023-02-22T00:04:07.965Z,9.20
2023-02-22T00:09:11.346Z,7.97
2023-02-22T00:14:18.125Z,11.18
2023-02-22T00:19:21.543Z,12.05
2023-02-22T00:24:24.882Z,12.80
2023-02-22T00:29:29.645Z,12.27
2023-02-22T00:34:32.979Z,17.80
2023-02-22T00:39:36.488Z,14.20
2023-02-22T00:44:41.483Z,16.48
2023-02-22T00:49:45.108Z,15.27
2023-02-22T00:54:48.496Z,15.27
2023-02-22T00:59:53.167Z,12.45
2023-02-22T01:04:56.553Z,20.63
2023-02-22T01:10:00.556Z,13.77
2023-02-22T01:15:06.712Z,15.35
2023-02-22T01:20:12.745Z,18.65
2023-02-22T01:25:18.909Z,14.95
2023-02-22T01:30:25.749Z,15.18
2023-02-22T01:35:31.353Z,20.05
2023-02-22T01:45:45.553Z,14.63
2023-02-22T01:50:55.134Z,13.60
2023-02-22T01:56:00.428Z,17.45
2023-02-22T02:06:13.892Z,14.45
2023-02-22T02:11:20.230Z,13.93
2023-02-22T02:16:27.065Z,14.05
2023-02-22T02:22:12.793Z,17.33
2023-02-22T02:27:20.487Z,19.00
2023-02-22T02:32:32.761Z,13.30
2023-02-22T02:37:40.972Z,16.98
2023-02-22T02:42:52.431Z,19.13
2023-02-22T02:48:00.347Z,17.30
2023-02-22T02:53:09.270Z,19.85
2023-02-22T02:58:20.004Z,12.93
2023-02-22T03:03:49.136Z,14.38
2023-02-22T03:09:03.584Z,14.60
2023-02-22T03:14:17.793Z,16.05
2023-02-22T03:19:28.795Z,13.07
2023-02-22T03:24:35.653Z,15.82
2023-02-22T03:29:42.898Z,13.75
2023-02-22T03:34:53.754Z,13.02
2023-02-22T03:40:01.908Z,14.32
2023-02-22T03:45:10.155Z,19.58
2023-02-22T03:50:19.330Z,13.55
2023-02-22T03:55:23.864Z,16.33
2023-02-22T04:00:30.742Z,15.10
2023-02-22T04:05:35.739Z,17.50
2023-02-22T04:10:39.170Z,15.23
2023-02-22T04:15:42.946Z,16.55
2023-02-22T04:20:49.265Z,17.33
2023-02-22T04:26:01.802Z,16.92
2023-02-22T04:31:07.172Z,15.45
2023-02-22T04:36:13.588Z,17.52
2023-02-22T04:41:19.547Z,20.52
2023-02-22T04:46:23.607Z,22.02
2023-02-22T04:51:30.116Z,19.63
2023-02-22T04:56:36.839Z,22.08
2023-02-22T05:01:40.178Z,20.92
2023-02-22T05:06:44.840Z,17.65
2023-02-22T05:11:48.166Z,22.33
2023-02-22T05:16:51.439Z,22.63
2023-02-22T05:21:56.529Z,21.00
2023-02-22T05:26:59.808Z,24.58
2023-02-22T05:32:03.381Z,23.67
2023-02-22T05:37:08.270Z,18.85
2023-02-22T05:42:11.597Z,24.67
2023-02-22T05:47:14.942Z,20.60
2023-02-22T05:52:20.084Z,18.20
2023-02-22T05:57:23.351Z,20.30
2023-02-22T06:02:26.684Z,20.30
2023-02-22T06:07:31.455Z,22.25
2023-02-22T06:12:34.768Z,15.93
2023-02-22T06:17:39.649Z,23.20
2023-02-22T06:22:45.654Z,20.77
2023-02-22T06:27:49.306Z,19.92
2023-02-22T06:32:52.579Z,25.25
2023-02-22T06:37:57.331Z,23.05
2023-02-22T06:43:00.960Z,19.13
2023-02-22T06:48:04.587Z,25.65
2023-02-22T06:53:10.362Z,33.15
2023-02-22T06:58:13.954Z,28.60
2023-02-22T07:03:17.735Z,21.02
2023-02-22T07:08:22.515Z,21.33
2023-02-22T07:13:26.193Z,18.97
2023-02-22T07:18:30.949Z,18.90
2023-02-22T07:23:35.767Z,19.87
2023-02-22T07:28:38.993Z,21.20
2023-02-22T07:33:52.155Z,19.48
2023-02-22T07:38:56.722Z,17.27
2023-02-22T07:43:59.984Z,15.13
2023-02-22T07:49:03.449Z,16.90
2023-02-22T07:54:08.133Z,19.70
2023-02-22T07:59:11.521Z,24.50
2023-02-22T08:04:14.830Z,21.75
2023-02-22T08:09:19.425Z,16.65
2023-02-22T08:14:22.736Z,15.07
2023-02-22T08:19:25.990Z,21.27
2023-02-22T08:24:30.743Z,20.50
2023-02-22T08:29:34.448Z,20.53
2023-02-22T08:34:38.106Z,20.23
2023-02-22T08:39:42.829Z,19.73
2023-02-22T08:44:46.281Z,20.60
2023-02-22T08:49:49.538Z,18.92
2023-02-22T08:54:55.779Z,22.10
2023-02-22T08:59:59.036Z,18.38
2023-02-22T09:05:02.565Z,23.17
2023-02-22T09:10:08.041Z,20.55
2023-02-22T09:15:12.257Z,22.88
2023-02-22T09:20:18.376Z,21.35
2023-02-22T09:25:23.900Z,19.65
2023-02-22T09:35:31.836Z,14.65
2023-02-22T09:40:44.998Z,17.98
2023-02-22T09:46:03.043Z,17.55
2023-02-22T09:51:16.925Z,21.35
2023-02-22T09:56:22.521Z,16.13
2023-02-22T10:06:33.584Z,14.85
2023-02-22T10:17:00.419Z,20.10
2023-02-22T10:22:32.844Z,17.13
2023-02-22T10:27:40.982Z,20.45
2023-02-22T10:32:46.500Z,19.02
2023-02-22T10:42:58.828Z,23.02
2023-02-22T10:48:08.625Z,15.68
2023-02-22T10:53:13.257Z,17.08
2023-02-22T10:58:18.398Z,16.88
2023-02-22T11:03:23.494Z,17.33
2023-02-22T11:08:29.283Z,18.55
2023-02-22T11:13:38.887Z,20.63
2023-02-22T11:18:42.232Z,22.02
2023-02-22T11:23:45.595Z,14.80
2023-02-22T11:28:56.176Z,14.00
2023-02-22T11:34:01.572Z,16.52
2023-02-22T11:39:06.643Z,19.42
2023-02-22T11:44:24.834Z,13.65
2023-02-22T11:49:35.279Z,14.55
2023-02-22T11:54:58.757Z,13.98
2023-02-22T12:00:16.789Z,23.55
2023-02-22T12:05:37.196Z,14.65
2023-02-22T12:10:50.103Z,17.25
2023-02-22T12:16:04.164Z,11.50
2023-02-22T12:21:16.755Z,18.23
2023-02-22T12:26:25.756Z,13.60
2023-02-22T12:31:34.275Z,14.05
2023-02-22T12:36:42.974Z,14.65
2023-02-22T12:41:49.486Z,12.68
2023-02-22T12:46:56.770Z,15.40
2023-02-22T12:52:20.616Z,12.38
2023-02-22T12:57:35.229Z,9.73
2023-02-22T13:02:44.903Z,15.45
2023-02-22T13:07:59.149Z,11.43
2023-02-22T13:13:10.255Z,11.85
2023-02-22T13:18:21.251Z,13.32
2023-02-22T13:23:39.195Z,13.10
2023-02-22T13:28:47.635Z,10.00
2023-02-22T13:34:13.249Z,14.05
2023-02-22T13:39:46.414Z,14.75
2023-02-22T13:45:22.004Z,15.00
2023-02-22T13:50:51.501Z,13.18
2023-02-22T13:55:57.829Z,16.13
2023-02-22T14:01:01.624Z,13.23
2023-02-22T14:06:08.598Z,12.57
2023-02-22T14:11:45.345Z,10.60
2023-02-22T14:17:23.308Z,11.70
2023-02-22T14:22:30.854Z,12.68
2023-02-22T14:27:41.850Z,9.73
2023-02-22T14:32:45.298Z,11.90
2023-02-22T14:37:55.710Z,11.45
2023-02-22T14:43:05.177Z,13.52
2023-02-22T14:48:20.420Z,9.25
2023-02-22T14:53:39.557Z,10.52
2023-02-22T14:58:48.840Z,11.25
2023-02-22T15:04:07.337Z,10.82
2023-02-22T15:09:24.105Z,8.15
2023-02-22T15:14:28.553Z,10.07
2023-02-22T15:19:34.498Z,7.38
2023-02-22T15:24:40.689Z,10.57
2023-02-22T15:29:46.111Z,7.45
2023-02-22T15:34:49.494Z,8.85
2023-02-22T15:39:59.470Z,7.45
2023-02-22T15:45:03.062Z,11.07
2023-02-22T15:50:18.242Z,8.80
2023-02-22T15:55:26.835Z,8.80
2023-02-22T16:00:37.085Z,9.57
2023-02-22T16:05:44.570Z,9.48
2023-02-22T16:10:54.888Z,6.07
2023-02-22T16:16:01.954Z,10.23
2023-02-22T16:21:12.021Z,6.30
2023-02-22T16:26:25.749Z,7.97
2023-02-22T16:31:33.715Z,7.40
2023-02-22T16:36:43.049Z,7.20
2023-02-22T16:41:47.934Z,6.97
2023-02-22T16:46:51.233Z,12.07
2023-02-22T16:51:57.719Z,6.90
2023-02-22T16:57:04.054Z,7.75
2023-02-22T17:02:08.436Z,12.43
2023-02-22T17:07:12.142Z,9.65
2023-02-22T17:12:16.774Z,9.63
2023-02-22T17:17:20.138Z,10.63
2023-02-22T17:22:24.161Z,16.83
2023-02-22T17:27:28.788Z,10.48
2023-02-22T17:32:32.532Z,14.38
2023-02-22T17:37:35.842Z,14.60
2023-02-22T17:42:40.658Z,14.48
2023-02-22T17:47:44.449Z,12.57
2023-02-22T17:52:51.549Z,17.77
2023-02-22T17:57:58.969Z,12.95
2023-02-22T18:03:04.222Z,18.90
2023-02-22T18:08:07.661Z,17.60
2023-02-22T18:13:16.747Z,21.25
2023-02-22T18:18:22.199Z,14.48
2023-02-22T18:23:27.877Z,16.20
2023-02-22T18:28:32.935Z,14.95
2023-02-22T18:33:36.208Z,22.90
2023-02-22T18:38:42.774Z,18.52
2023-02-22T18:43:47.882Z,20.05
2023-02-22T18:48:54.259Z,21.75
2023-02-22T18:54:00.532Z,18.23
2023-02-22T18:59:06.573Z,25.38
2023-02-22T19:04:11.959Z,18.60
2023-02-22T19:09:15.364Z,22.00
2023-02-22T19:14:20.036Z,24.15
2023-02-22T19:19:26.369Z,24.13
2023-02-22T19:24:29.885Z,20.08
2023-02-22T19:29:38.344Z,19.52
2023-02-22T19:34:43.990Z,25.30
2023-02-22T19:39:47.319Z,27.05
2023-02-22T19:44:53.363Z,19.08
2023-02-22T19:49:59.664Z,20.20
2023-02-22T19:55:03.672Z,21.38
2023-02-22T20:00:12.261Z,22.17
2023-02-22T20:05:16.542Z,27.10
2023-02-22T20:10:20.254Z,20.30
2023-02-22T20:15:25.466Z,26.83
2023-02-22T20:20:30.690Z,23.50
2023-02-22T20:25:35.430Z,23.83
2023-02-22T20:30:41.608Z,29.43
2023-02-22T20:35:46.660Z,22.55
2023-02-22T20:40:49.893Z,25.95
2023-02-22T20:45:54.548Z,26.88
2023-02-22T20:50:57.927Z,25.67
2023-02-22T20:56:01.137Z,26.45
2023-02-22T21:01:08.057Z,23.52
2023-02-22T21:06:15.048Z,24.92
2023-02-22T21:11:19.340Z,21.77
2023-02-22T21:16:25.967Z,22.95
2023-02-22T21:21:31.325Z,22.90
2023-02-22T21:26:35.698Z,19.30
2023-02-22T21:31:40.837Z,25.73
2023-02-22T21:36:44.979Z,23.13
2023-02-22T21:41:50.239Z,23.60
2023-02-22T21:46:54.944Z,22.88
2023-02-22T21:51:58.343Z,18.75
2023-02-22T21:57:01.647Z,23.13
2023-02-22T22:02:06.445Z,25.83
2023-02-22T22:07:09.696Z,28.70
2023-02-22T22:12:14.220Z,28.73
2023-02-22T22:17:18.856Z,26.35
2023-02-22T22:22:23.139Z,21.47
2023-02-22T22:27:27.348Z,22.95
2023-02-22T22:32:32.302Z,23.73
2023-02-22T22:37:35.574Z,24.30
2023-02-22T22:42:39.409Z,23.45
2023-02-22T22:47:46.133Z,28.92
2023-02-22T22:52:49.685Z,23.50
2023-02-22T22:57:52.997Z,21.08
2023-02-22T23:02:57.820Z,21.10
2023-02-22T23:08:04.773Z,23.63
2023-02-22T23:13:10.423Z,19.73
2023-02-22T23:18:15.500Z,23.05
2023-02-22T23:23:18.764Z,21.65
2023-02-22T23:28:23.799Z,17.23
2023-02-22T23:33:31.431Z,20.13
2023-02-22T23:38:35.047Z,15.98
2023-02-22T23:43:40.480Z,17.88
2023-02-22T23:48:49.296Z,17.58
2023-02-22T23:53:55.699Z,17.08
2023-02-22T23:58:59.368Z,19.08
